createdAt,value
2022-08-04T00:03:19.491Z,72.00
2022-08-04T00:08:34.763Z,72.10
2022-08-04T00:13:57.925Z,72.40
2022-08-04T00:19:11.680Z,72.50
2022-08-04T00:24:17.106Z,72.60
2022-08-04T00:29:22.838Z,72.80
2022-08-04T00:34:27.930Z,73.00
2022-08-04T00:39:32.922Z,73.00
2022-08-04T00:44:49.943Z,73.00
2022-08-04T00:50:06.938Z,73.30
2022-08-04T00:55:28.975Z,73.50
2022-08-04T01:00:45.123Z,73.50
2022-08-04T01:05:58.752Z,73.60
2022-08-04T01:11:12.658Z,73.70
2022-08-04T01:16:19.143Z,74.00
2022-08-04T01:21:59.214Z,74.20
2022-08-04T01:27:07.194Z,74.60
2022-08-04T01:32:25.376Z,74.50
2022-08-04T01:37:46.570Z,74.90
2022-08-04T01:42:54.257Z,75.30
2022-08-04T01:47:59.290Z,75.60
2022-08-04T01:53:04.901Z,75.60
2022-08-04T01:58:09.349Z,75.60
2022-08-04T02:03:14.303Z,75.80
2022-08-04T02:08:32.074Z,75.80
2022-08-04T02:13:44.413Z,75.70
2022-08-04T02:18:59.009Z,76.00
2022-08-04T02:24:07.210Z,76.40
2022-08-04T02:29:22.341Z,76.50
2022-08-04T02:34:31.981Z,76.40
2022-08-04T02:39:48.588Z,76.70
2022-08-04T02:44:53.249Z,77.00
2022-08-04T02:49:59.459Z,77.20
2022-08-04T02:55:04.131Z,77.60
2022-08-04T03:00:10.986Z,78.10
2022-08-04T03:05:19.915Z,78.30
2022-08-04T03:11:02.025Z,78.90
2022-08-04T03:16:30.292Z,78.70
2022-08-04T03:22:26.036Z,78.70
2022-08-04T03:27:46.699Z,78.50
2022-08-04T03:33:25.490Z,78.30
2022-08-04T03:39:04.011Z,78.40
2022-08-04T03:44:43.483Z,78.20
2022-08-04T03:50:26.606Z,78.20
2022-08-04T03:56:18.342Z,78.00
2022-08-04T04:02:02.718Z,77.80
2022-08-04T04:07:38.159Z,77.60
2022-08-04T04:13:06.893Z,77.70
2022-08-04T04:18:23.143Z,77.80
2022-08-04T04:23:37.032Z,77.90
2022-08-04T04:28:51.827Z,77.90
2022-08-04T04:34:07.320Z,77.60
2022-08-04T04:39:21.518Z,77.50
2022-08-04T04:45:13.649Z,77.70
2022-08-04T04:50:28.648Z,77.70
2022-08-04T04:55:48.131Z,77.60
2022-08-04T05:01:14.937Z,77.70
2022-08-04T05:06:40.075Z,77.80
2022-08-04T05:14:32.460Z,77.70
2022-08-04T05:17:56.571Z,77.50
2022-08-04T05:23:04.758Z,77.40
2022-08-04T05:28:13.501Z,77.40
2022-08-04T05:33:22.459Z,77.80
2022-08-04T05:38:35.168Z,77.90
2022-08-04T05:43:41.671Z,78.00
2022-08-04T05:48:47.839Z,78.00
2022-08-04T05:53:55.250Z,77.90
2022-08-04T05:58:59.751Z,77.70
2022-08-04T06:04:08.062Z,77.90
2022-08-04T06:09:16.671Z,77.90
2022-08-04T06:14:24.991Z,77.50
2022-08-04T06:20:01.808Z,77.50
2022-08-04T06:24:57.575Z,77.50
2022-08-04T06:30:07.065Z,77.50
2022-08-04T06:35:12.103Z,77.20
2022-08-04T06:40:31.992Z,77.00
2022-08-04T06:45:41.318Z,76.60
2022-08-04T06:51:25.678Z,76.60
2022-08-04T06:56:16.221Z,76.50
2022-08-04T07:01:22.050Z,76.60
2022-08-04T07:06:26.138Z,76.50
2022-08-04T07:11:39.462Z,76.30
2022-08-04T07:16:50.879Z,75.90
2022-08-04T07:22:18.787Z,75.60
2022-08-04T07:27:47.731Z,75.20
2022-08-04T07:32:46.197Z,75.00
2022-08-04T07:37:50.126Z,74.70
2022-08-04T07:42:55.535Z,74.60
2022-08-04T07:48:05.022Z,74.40
2022-08-04T07:53:55.011Z,74.10
2022-08-04T07:58:36.361Z,73.50
2022-08-04T08:03:41.979Z,72.80
2022-08-04T08:08:45.879Z,72.10
2022-08-04T08:13:51.270Z,71.80
2022-08-04T08:18:55.942Z,71.70
2022-08-04T08:23:59.850Z,71.50
2022-08-04T08:29:05.815Z,71.10
2022-08-04T08:34:11.430Z,70.30
2022-08-04T08:39:24.727Z,69.40
2022-08-04T08:45:17.808Z,68.90
2022-08-04T08:50:59.108Z,67.40
2022-08-04T08:56:14.999Z,66.40
2022-08-04T09:01:35.826Z,65.40
2022-08-04T09:06:52.021Z,63.80
2022-08-04T09:12:07.050Z,62.40
2022-08-04T09:17:23.796Z,61.20
2022-08-04T09:22:35.344Z,59.60
2022-08-04T09:27:47.307Z,58.70
2022-08-04T09:33:01.485Z,57.50
2022-08-04T09:38:12.197Z,56.20
2022-08-04T09:43:28.079Z,55.60
2022-08-04T09:49:00.039Z,55.60
2022-08-04T09:54:10.734Z,54.70
2022-08-04T09:59:42.428Z,53.80
2022-08-04T10:04:50.507Z,52.90
2022-08-04T10:10:04.891Z,52.50
2022-08-04T10:15:15.101Z,52.00
2022-08-04T10:20:34.006Z,51.70
2022-08-04T10:26:05.202Z,51.20
2022-08-04T10:31:17.053Z,50.50
2022-08-04T10:36:25.123Z,49.80
2022-08-04T10:41:36.048Z,49.30
2022-08-04T10:46:46.902Z,48.70
2022-08-04T10:51:58.715Z,48.20
2022-08-04T10:57:08.658Z,47.70
2022-08-04T11:02:27.199Z,47.10
2022-08-04T11:07:35.882Z,46.50
2022-08-04T11:12:41.770Z,46.80
2022-08-04T11:17:51.563Z,47.10
2022-08-04T11:23:04.986Z,46.40
2022-08-04T11:28:15.386Z,46.30
2022-08-04T11:33:28.478Z,46.00
2022-08-04T11:38:41.452Z,45.90
2022-08-04T11:44:02.467Z,45.60
2022-08-04T11:49:13.048Z,45.90
2022-08-04T11:54:20.274Z,45.70
2022-08-04T11:59:25.893Z,45.80
2022-08-04T12:04:43.249Z,45.80
2022-08-04T12:09:57.658Z,45.20
2022-08-04T12:15:12.693Z,45.30
2022-08-04T12:20:38.535Z,44.90
2022-08-04T12:25:49.942Z,44.60
2022-08-04T12:31:04.225Z,44.70
2022-08-04T12:36:21.342Z,44.50
2022-08-04T12:41:35.604Z,44.00
2022-08-04T12:46:41.220Z,43.90
2022-08-04T12:52:06.312Z,43.60
2022-08-04T12:57:14.424Z,43.40
2022-08-04T13:02:24.077Z,42.70
2022-08-04T13:07:37.031Z,42.60
2022-08-04T13:12:57.301Z,42.50
2022-08-04T13:18:05.267Z,42.00
2022-08-04T13:23:21.991Z,41.80
2022-08-04T13:28:28.864Z,41.60
2022-08-04T13:33:35.699Z,41.60
2022-08-04T13:38:46.403Z,41.60
2022-08-04T13:44:17.893Z,41.20
2022-08-04T13:49:37.647Z,41.40
2022-08-04T13:54:47.063Z,41.70
2022-08-04T13:59:55.864Z,42.30
2022-08-04T14:05:05.793Z,42.80
2022-08-04T14:10:23.684Z,43.40
2022-08-04T14:16:01.486Z,43.90
2022-08-04T14:21:08.365Z,44.10
2022-08-04T14:26:20.124Z,44.40
2022-08-04T14:31:30.830Z,45.20
2022-08-04T14:37:16.181Z,44.80
2022-08-04T14:42:06.438Z,44.70
2022-08-04T14:47:13.310Z,44.80
2022-08-04T14:52:25.066Z,45.10
2022-08-04T14:57:28.956Z,45.40
2022-08-04T15:02:36.134Z,45.40
2022-08-04T15:07:40.124Z,45.70
2022-08-04T15:12:44.399Z,45.90
2022-08-04T15:17:50.046Z,45.90
2022-08-04T15:22:53.853Z,46.00
2022-08-04T15:27:58.570Z,46.00
2022-08-04T15:33:04.402Z,46.00
2022-08-04T15:38:14.738Z,46.00
2022-08-04T15:43:33.572Z,46.30
2022-08-04T15:48:40.798Z,46.30
2022-08-04T15:54:30.633Z,46.50
2022-08-04T16:00:00.312Z,46.50
2022-08-04T16:05:35.653Z,46.60
2022-08-04T16:10:41.246Z,46.60
2022-08-04T16:15:50.629Z,46.60
2022-08-04T16:20:58.201Z,46.70
2022-08-04T16:26:02.061Z,46.70
2022-08-04T16:31:06.948Z,46.70
2022-08-04T16:36:16.723Z,46.80
2022-08-04T16:41:40.458Z,46.80
2022-08-04T16:47:22.082Z,46.90
2022-08-04T16:52:13.751Z,47.00
2022-08-04T16:57:17.606Z,47.10
2022-08-04T17:02:26.290Z,47.10
2022-08-04T17:08:28.218Z,47.10
2022-08-04T17:14:03.101Z,47.30
2022-08-04T17:18:51.283Z,47.30
2022-08-04T17:24:15.061Z,47.40
2022-08-04T17:29:21.682Z,47.30
2022-08-04T17:34:26.494Z,47.30
2022-08-04T17:39:35.041Z,47.10
2022-08-04T17:44:43.488Z,47.20
2022-08-04T17:49:53.069Z,47.20
2022-08-04T17:55:02.976Z,47.30
2022-08-04T18:00:08.286Z,47.40
2022-08-04T18:05:50.195Z,47.40
2022-08-04T18:10:56.985Z,47.50
2022-08-04T18:16:05.136Z,47.60
2022-08-04T18:21:08.952Z,47.60
2022-08-04T18:26:15.245Z,47.80
2022-08-04T18:31:18.926Z,47.80
2022-08-04T18:36:36.973Z,47.90
2022-08-04T18:42:02.376Z,48.00
2022-08-04T18:47:22.400Z,48.00
2022-08-04T18:52:27.059Z,48.10
2022-08-04T18:58:00.702Z,48.30
2022-08-04T19:02:57.795Z,48.40
2022-08-04T19:08:33.530Z,48.70
2022-08-04T19:13:27.097Z,49.10
2022-08-04T19:18:36.445Z,49.40
2022-08-04T19:24:30.585Z,49.70
2022-08-04T19:29:08.555Z,50.00
2022-08-04T19:34:12.402Z,50.30
2022-08-04T19:39:16.211Z,50.90
2022-08-04T19:44:21.461Z,51.20
2022-08-04T19:50:03.785Z,51.70
2022-08-04T19:54:51.043Z,52.10
2022-08-04T19:59:56.042Z,52.50
2022-08-04T20:04:59.657Z,53.00
2022-08-04T20:10:04.287Z,53.30
2022-08-04T20:20:34.262Z,54.00
2022-08-04T20:25:38.922Z,54.30
2022-08-04T20:30:47.934Z,54.70
2022-08-04T20:36:05.043Z,55.10
2022-08-04T20:41:10.326Z,55.30
2022-08-04T20:46:29.274Z,55.50
2022-08-04T20:51:39.902Z,55.60
2022-08-04T20:56:50.605Z,55.90
2022-08-04T21:01:56.788Z,56.20
2022-08-04T21:07:05.623Z,56.30
2022-08-04T21:12:10.186Z,56.70
2022-08-04T21:17:17.014Z,56.90
2022-08-04T21:22:33.120Z,57.00
2022-08-04T21:27:39.500Z,57.00
2022-08-04T21:32:44.697Z,57.50
2022-08-04T21:37:56.489Z,57.80
2022-08-04T21:43:01.106Z,58.10
2022-08-04T21:48:08.208Z,58.30
2022-08-04T21:53:12.990Z,58.60
2022-08-04T21:58:16.812Z,58.90
2022-08-04T22:03:52.593Z,59.20
2022-08-04T22:08:49.150Z,59.40
2022-08-04T22:14:10.954Z,60.10
2022-08-04T22:19:16.814Z,59.90
2022-08-04T22:24:27.684Z,60.10
2022-08-04T22:29:33.638Z,60.20
2022-08-04T22:34:45.379Z,60.20
2022-08-04T22:39:56.510Z,60.50
2022-08-04T22:45:00.872Z,60.70
2022-08-04T22:50:26.832Z,60.90
2022-08-04T22:55:57.431Z,61.10
2022-08-04T23:00:58.233Z,61.40
2022-08-04T23:06:06.404Z,61.50
2022-08-04T23:11:11.328Z,61.70
2022-08-04T23:16:15.353Z,61.80
2022-08-04T23:21:24.241Z,62.00
2022-08-04T23:26:28.589Z,62.00
2022-08-04T23:31:41.123Z,62.10
2022-08-04T23:36:59.299Z,62.10
2022-08-04T23:42:03.155Z,62.30
2022-08-04T23:47:07.763Z,62.70
2022-08-04T23:52:23.305Z,63.00
2022-08-04T23:58:05.257Z,63.10
